createdAt,value
2019-04-07T04:00:56.340Z,0.00
2019-04-07T04:01:57.471Z,0.00
2019-04-07T04:02:56.814Z,0.00
2019-04-07T04:03:56.795Z,0.00
2019-04-07T04:04:57.655Z,0.00
2019-04-07T04:05:57.354Z,0.00
2019-04-07T04:06:57.424Z,0.00
2019-04-07T04:07:57.541Z,0.00
2019-04-07T04:08:58.535Z,0.00
2019-04-07T04:09:58.218Z,0.00
2019-04-07T04:10:58.136Z,0.00
2019-04-07T04:11:58.220Z,0.00
2019-04-07T04:12:58.637Z,0.00
2019-04-07T04:13:58.560Z,4.00
2019-04-07T04:14:59.848Z,0.00
2019-04-07T04:15:58.978Z,0.00
2019-04-07T04:16:59.073Z,4.00
2019-04-07T04:17:59.242Z,0.00
2019-04-07T04:19:00.019Z,4.00
2019-04-07T04:19:59.589Z,4.00
2019-04-07T04:20:59.757Z,4.00
2019-04-07T04:22:00.631Z,4.00
2019-04-07T04:23:00.100Z,8.00
2019-04-07T04:24:00.592Z,12.00
2019-04-07T04:25:00.963Z,12.00
2019-04-07T04:26:00.950Z,16.00
2019-04-07T04:27:01.014Z,16.00
2019-04-07T04:28:01.235Z,20.00
2019-04-07T04:29:02.481Z,28.00
2019-04-07T04:30:01.296Z,32.00
2019-04-07T04:31:01.475Z,36.00
2019-04-07T04:32:01.693Z,40.00
2019-04-07T04:33:02.197Z,48.00
2019-04-07T04:34:01.988Z,56.00
2019-04-07T04:35:03.201Z,68.00
2019-04-07T04:36:02.788Z,76.00
2019-04-07T04:37:02.510Z,88.00
2019-04-07T04:38:02.660Z,100.00
2019-04-07T04:39:02.831Z,116.00
2019-04-07T04:40:03.005Z,132.00
2019-04-07T04:41:03.177Z,152.00
2019-04-07T04:42:03.969Z,172.00
2019-04-07T04:43:03.523Z,192.00
2019-04-07T04:44:03.900Z,208.00
2019-04-07T04:45:04.250Z,236.00
2019-04-07T04:46:04.027Z,256.00
2019-04-07T04:47:04.811Z,280.00
2019-04-07T04:48:04.485Z,312.00
2019-04-07T04:49:04.542Z,340.00
2019-04-07T04:50:06.054Z,372.00
2019-04-07T04:51:05.342Z,404.00
2019-04-07T04:52:05.230Z,436.00
2019-04-07T04:53:06.100Z,472.00
2019-04-07T04:54:05.388Z,512.00
2019-04-07T04:55:05.558Z,548.00
2019-04-07T04:56:05.731Z,588.00
2019-04-07T04:57:08.008Z,628.00
2019-04-07T04:58:06.070Z,668.00
2019-04-07T04:59:07.314Z,716.00
2019-04-07T05:00:06.416Z,756.00
2019-04-07T05:01:06.586Z,804.00
2019-04-07T05:02:06.751Z,848.00
2019-04-07T05:03:07.189Z,896.00
2019-04-07T05:04:07.492Z,944.00
2019-04-07T05:05:09.269Z,992.00
2019-04-07T05:06:07.866Z,1040.00
2019-04-07T05:07:07.608Z,1084.00
2019-04-07T05:08:08.343Z,1136.00
2019-04-07T05:09:07.950Z,1180.00
2019-04-07T05:10:08.312Z,1224.00
2019-04-07T05:11:09.083Z,1268.00
2019-04-07T05:12:08.461Z,1316.00
2019-04-07T05:13:09.641Z,1360.00
2019-04-07T05:14:08.968Z,1404.00
2019-04-07T05:15:09.647Z,1452.00
2019-04-07T05:16:09.141Z,1500.00
2019-04-07T05:17:09.989Z,1548.00
2019-04-07T05:18:09.787Z,1596.00
2019-04-07T05:19:09.793Z,1648.00
2019-04-07T05:20:10.225Z,1696.00
2019-04-07T05:21:10.531Z,1748.00
2019-04-07T05:22:10.257Z,1792.00
2019-04-07T05:23:10.338Z,1840.00
2019-04-07T05:24:10.511Z,1884.00
2019-04-07T05:25:10.696Z,1936.00
2019-04-07T05:26:10.999Z,1984.00
2019-04-07T05:27:11.364Z,2032.00
2019-04-07T05:28:11.370Z,2080.00
2019-04-07T05:29:11.364Z,2124.00
2019-04-07T05:30:11.534Z,2164.00
2019-04-07T05:31:12.292Z,2216.00
2019-04-07T05:32:12.231Z,2260.00
2019-04-07T05:33:12.118Z,2308.00
2019-04-07T05:34:16.427Z,2348.00
2019-04-07T05:35:13.121Z,2396.00
2019-04-07T05:36:12.562Z,2440.00
2019-04-07T05:37:12.899Z,2484.00
2019-04-07T05:38:13.588Z,2528.00
2019-04-07T05:39:13.079Z,2568.00
2019-04-07T05:40:13.315Z,2612.00
2019-04-07T05:41:14.130Z,2652.00
2019-04-07T05:42:13.598Z,2692.00
2019-04-07T05:43:13.768Z,2724.00
2019-04-07T05:44:13.959Z,2768.00
2019-04-07T05:45:14.112Z,2808.00
2019-04-07T05:46:14.808Z,2852.00
2019-04-07T05:47:15.503Z,2892.00
2019-04-07T05:48:17.421Z,2932.00
2019-04-07T05:49:16.216Z,2972.00
2019-04-07T05:50:15.471Z,3012.00
2019-04-07T05:51:15.135Z,3052.00
2019-04-07T05:52:16.040Z,3092.00
2019-04-07T05:53:15.897Z,3136.00
2019-04-07T05:54:17.359Z,3176.00
2019-04-07T05:55:15.818Z,3220.00
2019-04-07T05:56:16.459Z,3256.00
2019-04-07T05:57:16.163Z,3304.00
2019-04-07T05:58:16.340Z,3340.00
2019-04-07T05:59:16.508Z,3384.00
2019-04-07T06:00:17.032Z,3432.00
2019-04-07T06:01:21.757Z,3476.00
2019-04-07T06:02:17.026Z,3532.00
2019-04-07T06:03:17.676Z,3588.00
2019-04-07T06:04:19.174Z,3644.00
2019-04-07T06:05:18.582Z,3704.00
2019-04-07T06:06:19.063Z,3764.00
2019-04-07T06:07:17.882Z,3824.00
2019-04-07T06:08:26.019Z,3880.00
2019-04-07T06:09:20.442Z,3936.00
2019-04-07T06:10:21.794Z,3980.00
2019-04-07T06:11:18.574Z,4032.00
2019-04-07T06:12:19.322Z,4084.00
2019-04-07T06:13:19.097Z,4132.00
2019-04-07T06:14:19.329Z,4184.00
2019-04-07T06:15:21.970Z,4224.00
2019-04-07T06:16:20.940Z,4268.00
2019-04-07T06:17:19.597Z,4316.00
2019-04-07T06:18:19.770Z,4364.00
2019-04-07T06:19:20.370Z,4404.00
2019-04-07T06:20:20.108Z,4444.00
2019-04-07T06:21:20.303Z,4484.00
2019-04-07T06:22:21.016Z,4528.00
2019-04-07T06:23:23.403Z,4576.00
2019-04-07T06:24:22.308Z,4636.00
2019-04-07T06:25:21.035Z,4696.00
2019-04-07T06:26:21.141Z,4752.00
2019-04-07T06:27:21.744Z,4820.00
2019-04-07T06:28:21.475Z,4884.00
2019-04-07T06:29:24.688Z,4948.00
2019-04-07T06:30:22.107Z,5004.00
2019-04-07T06:31:24.476Z,5048.00
2019-04-07T06:32:22.154Z,5096.00
2019-04-07T06:33:22.327Z,5124.00
2019-04-07T06:34:22.635Z,5164.00
2019-04-07T06:35:23.433Z,5204.00
2019-04-07T06:36:26.034Z,5244.00
2019-04-07T06:37:26.839Z,5276.00
2019-04-07T06:38:31.822Z,5316.00
2019-04-07T06:39:24.089Z,5360.00
2019-04-07T06:40:24.220Z,5416.00
2019-04-07T06:41:24.281Z,5468.00
2019-04-07T06:42:24.177Z,5516.00
2019-04-07T06:43:24.749Z,5568.00
2019-04-07T06:44:24.349Z,5596.00
2019-04-07T06:45:24.513Z,5648.00
2019-04-07T06:46:27.643Z,5700.00
2019-04-07T06:47:24.967Z,5752.00
2019-04-07T06:48:25.491Z,5800.00
2019-04-07T06:49:27.847Z,5860.00
2019-04-07T06:50:25.800Z,5908.00
2019-04-07T06:51:29.291Z,5960.00
2019-04-07T06:52:25.883Z,5984.00
2019-04-07T06:53:25.927Z,6040.00
2019-04-07T06:54:25.958Z,6064.00
2019-04-07T06:55:27.987Z,6100.00
2019-04-07T06:56:26.278Z,6156.00
2019-04-07T06:57:26.605Z,6196.00
2019-04-07T06:58:26.660Z,6224.00
2019-04-07T06:59:27.276Z,6248.00
2019-04-07T07:00:26.967Z,6296.00
2019-04-07T07:01:27.460Z,6332.00
2019-04-07T07:02:29.488Z,6376.00
2019-04-07T07:03:28.207Z,6416.00
2019-04-07T07:04:27.692Z,6452.00
2019-04-07T07:05:27.934Z,6480.00
2019-04-07T07:06:28.551Z,6496.00
2019-04-07T07:07:28.193Z,6552.00
2019-04-07T07:08:28.404Z,6580.00
2019-04-07T07:09:28.885Z,6632.00
2019-04-07T07:10:30.344Z,6676.00
2019-04-07T07:11:31.076Z,6716.00
2019-04-07T07:12:35.123Z,6772.00
2019-04-07T07:13:33.319Z,6816.00
2019-04-07T07:14:34.784Z,6856.00
2019-04-07T07:15:33.108Z,6912.00
2019-04-07T07:16:29.950Z,6952.00
2019-04-07T07:17:29.902Z,6984.00
2019-04-07T07:18:30.629Z,6996.00
2019-04-07T07:19:30.245Z,7032.00
2019-04-07T07:20:31.200Z,7068.00
2019-04-07T07:21:34.038Z,7120.00
2019-04-07T07:22:31.145Z,7188.00
2019-04-07T07:23:31.114Z,7244.00
2019-04-07T07:24:31.103Z,7304.00
2019-04-07T07:25:33.068Z,7380.00
2019-04-07T07:26:34.578Z,7440.00
2019-04-07T07:27:31.768Z,7492.00
2019-04-07T07:28:31.793Z,7544.00
2019-04-07T07:29:32.115Z,7584.00
2019-04-07T07:30:32.445Z,7620.00
2019-04-07T07:31:32.310Z,7552.00
2019-04-07T07:32:35.020Z,7700.00
2019-04-07T07:33:33.388Z,7796.00
2019-04-07T07:34:32.829Z,7840.00
2019-04-07T07:35:33.444Z,7908.00
2019-04-07T07:36:33.802Z,7968.00
2019-04-07T07:37:33.402Z,7940.00
2019-04-07T07:38:34.338Z,7900.00
2019-04-07T07:39:34.091Z,8240.00
2019-04-07T07:40:35.048Z,8320.00
2019-04-07T07:41:34.501Z,8388.00
2019-04-07T07:42:34.237Z,8476.00
2019-04-07T07:43:34.386Z,8560.00
2019-04-07T07:44:38.172Z,8632.00
2019-04-07T07:45:34.729Z,8684.00
2019-04-07T07:46:34.903Z,8764.00
2019-04-07T07:47:35.077Z,8852.00
2019-04-07T07:48:35.661Z,8928.00
2019-04-07T07:49:39.912Z,9028.00
2019-04-07T07:50:38.066Z,9124.00
2019-04-07T07:51:38.410Z,9212.00
2019-04-07T07:52:35.950Z,9296.00
2019-04-07T07:53:36.179Z,9396.00
2019-04-07T07:54:36.789Z,9480.00
2019-04-07T07:55:37.586Z,9556.00
2019-04-07T07:56:36.727Z,9696.00
2019-04-07T07:57:37.080Z,9804.00
2019-04-07T07:58:36.988Z,9920.00
2019-04-07T07:59:38.987Z,10064.00
2019-04-07T08:00:40.379Z,10200.00
2019-04-07T08:01:37.510Z,10324.00
2019-04-07T08:02:37.681Z,10396.00
2019-04-07T08:03:37.854Z,10536.00
2019-04-07T08:04:38.687Z,10720.00
2019-04-07T08:05:38.203Z,10856.00
2019-04-07T08:06:40.756Z,11008.00
2019-04-07T08:07:39.055Z,11148.00
2019-04-07T08:08:39.596Z,11296.00
2019-04-07T08:09:39.297Z,11600.00
2019-04-07T08:10:39.721Z,11752.00
2019-04-07T08:11:39.910Z,11716.00
2019-04-07T08:12:40.046Z,11916.00
2019-04-07T08:13:44.426Z,12244.00
2019-04-07T08:14:40.381Z,12552.00
2019-04-07T08:15:40.481Z,12352.00
2019-04-07T08:16:40.113Z,12040.00
2019-04-07T08:17:40.958Z,12052.00
2019-04-07T08:18:43.584Z,12448.00
2019-04-07T08:19:42.271Z,13168.00
2019-04-07T08:20:44.192Z,13532.00
2019-04-07T08:21:43.319Z,13732.00
2019-04-07T08:22:43.673Z,14024.00
2019-04-07T08:23:44.603Z,14160.00
2019-04-07T08:24:41.583Z,14380.00
2019-04-07T08:25:42.491Z,14580.00
2019-04-07T08:26:41.900Z,15168.00
2019-04-07T08:27:42.048Z,15392.00
2019-04-07T08:28:42.708Z,15360.00
2019-04-07T08:29:42.391Z,15680.00
2019-04-07T08:30:45.684Z,15968.00
2019-04-07T08:31:42.746Z,16256.00
2019-04-07T08:32:43.247Z,16448.00
2019-04-07T08:33:43.276Z,16736.00
2019-04-07T08:34:43.783Z,17280.00
2019-04-07T08:35:43.589Z,17696.00
2019-04-07T08:36:45.349Z,18176.00
2019-04-07T08:37:46.463Z,18304.00
2019-04-07T08:38:43.974Z,18176.00
2019-04-07T08:39:44.234Z,18656.00
2019-04-07T08:40:44.542Z,18976.00
2019-04-07T08:41:45.080Z,20096.00
2019-04-07T08:42:48.304Z,21152.00
2019-04-07T08:43:45.243Z,20928.00
2019-04-07T08:44:45.172Z,21024.00
2019-04-07T08:45:45.990Z,21664.00
2019-04-07T08:46:45.448Z,21952.00
2019-04-07T08:47:48.035Z,22240.00
2019-04-07T08:48:49.687Z,22752.00
2019-04-07T08:49:46.023Z,23808.00
2019-04-07T08:50:46.383Z,24576.00
2019-04-07T08:51:46.262Z,24448.00
2019-04-07T08:52:46.676Z,24352.00
2019-04-07T08:53:47.309Z,24224.00
2019-04-07T08:54:50.328Z,24032.00
2019-04-07T08:55:48.720Z,24864.00
2019-04-07T08:56:48.033Z,26464.00
2019-04-07T08:57:47.309Z,26240.00
2019-04-07T08:58:47.821Z,25440.00
2019-04-07T08:59:48.112Z,26112.00
2019-04-07T09:00:50.971Z,27424.00
2019-04-07T09:01:51.738Z,28096.00
2019-04-07T09:03:01.081Z,27712.00
2019-04-07T09:03:48.598Z,27008.00
2019-04-07T09:04:51.919Z,27744.00
2019-04-07T09:05:48.721Z,29248.00
2019-04-07T09:06:48.909Z,29536.00
2019-04-07T09:07:49.075Z,30528.00
2019-04-07T09:08:49.798Z,30720.00
2019-04-07T09:09:50.023Z,31328.00
2019-04-07T09:10:50.837Z,31424.00
2019-04-07T09:11:53.000Z,31072.00
2019-04-07T09:12:49.985Z,31840.00
2019-04-07T09:13:50.136Z,31712.00
2019-04-07T09:14:50.313Z,32224.00
2019-04-07T09:15:50.495Z,33632.00
2019-04-07T09:16:54.247Z,34240.00
2019-04-07T09:17:51.390Z,33504.00
2019-04-07T09:18:55.011Z,33440.00
2019-04-07T09:19:53.776Z,34208.00
2019-04-07T09:20:51.854Z,34176.00
2019-04-07T09:21:52.032Z,34464.00
2019-04-07T09:22:54.579Z,35456.00
2019-04-07T09:23:52.206Z,35424.00
2019-04-07T09:24:52.131Z,35552.00
2019-04-07T09:25:52.257Z,36800.00
2019-04-07T09:26:52.483Z,37984.00
2019-04-07T09:27:52.609Z,36896.00
2019-04-07T09:28:55.421Z,37856.00
2019-04-07T09:29:53.424Z,40192.00
2019-04-07T09:30:53.664Z,38880.00
2019-04-07T09:31:54.067Z,37728.00
2019-04-07T09:32:53.497Z,38560.00
2019-04-07T09:33:53.963Z,40416.00
2019-04-07T09:34:55.310Z,41440.00
2019-04-07T09:35:56.668Z,42112.00
2019-04-07T09:36:54.437Z,43776.00
2019-04-07T09:37:55.155Z,45792.00
2019-04-07T09:38:57.876Z,45728.00
2019-04-07T09:39:59.519Z,45920.00
2019-04-07T09:40:54.923Z,45248.00
2019-04-07T09:41:55.349Z,45024.00
2019-04-07T09:42:58.738Z,45856.00
2019-04-07T09:43:55.453Z,47040.00
2019-04-07T09:44:56.280Z,47456.00
2019-04-07T09:45:55.808Z,48704.00
2019-04-07T09:46:55.985Z,49312.00
2019-04-07T09:47:56.465Z,47008.00
2019-04-07T09:48:56.341Z,46304.00
2019-04-07T09:49:57.603Z,50464.00
2019-04-07T09:51:02.562Z,50688.00
2019-04-07T09:51:57.472Z,49440.00
2019-04-07T09:52:57.056Z,50144.00
2019-04-07T09:53:57.522Z,51200.00
2019-04-07T09:54:57.439Z,51296.00
2019-04-07T09:55:58.232Z,51168.00
2019-04-07T09:56:57.771Z,51840.00
2019-04-07T09:57:57.950Z,52672.00
2019-04-07T09:58:58.131Z,54336.00
2019-04-07T09:59:58.307Z,53632.00
2019-04-07T10:00:58.529Z,52224.00
2019-04-07T10:02:01.051Z,51424.00
2019-04-07T10:02:58.841Z,52992.00
2019-04-07T10:03:59.040Z,54528.00
2019-04-07T10:04:59.248Z,54336.00
2019-04-07T10:05:59.443Z,53312.00
2019-04-07T10:06:59.605Z,53920.00
2019-04-07T10:07:59.845Z,55584.00
2019-04-07T10:09:00.071Z,57952.00
2019-04-07T10:10:10.158Z,58432.00
2019-04-07T10:11:00.663Z,55776.00
2019-04-07T10:12:00.495Z,56384.00
2019-04-07T10:13:00.715Z,56832.00
2019-04-07T10:14:01.190Z,57792.00
2019-04-07T10:15:02.001Z,61952.00
2019-04-07T10:16:01.244Z,60928.00
2019-04-07T10:17:01.419Z,56960.00
2019-04-07T10:18:02.090Z,54944.00
2019-04-07T10:19:01.903Z,56000.00
2019-04-07T10:20:02.316Z,58208.00
2019-04-07T10:21:02.142Z,57504.00
2019-04-07T10:22:03.349Z,56896.00
2019-04-07T10:23:03.014Z,59968.00
2019-04-07T10:24:02.846Z,64128.00
2019-04-07T10:25:02.866Z,65376.00
2019-04-07T10:26:04.004Z,64128.00
2019-04-07T10:27:03.216Z,59712.00
2019-04-07T10:28:07.251Z,58368.00
2019-04-07T10:29:04.432Z,59488.00
2019-04-07T10:30:04.589Z,61728.00
2019-04-07T10:31:04.721Z,64608.00
2019-04-07T10:32:04.607Z,64160.00
2019-04-07T10:33:04.319Z,61632.00
2019-04-07T10:34:05.173Z,61728.00
2019-04-07T10:35:04.661Z,63840.00
2019-04-07T10:36:04.937Z,66016.00
2019-04-07T10:37:05.092Z,65888.00
2019-04-07T10:38:05.232Z,63968.00
2019-04-07T10:39:06.108Z,66176.00
2019-04-07T10:40:16.705Z,69664.00
2019-04-07T10:41:06.697Z,68864.00
2019-04-07T10:42:06.658Z,68288.00
2019-04-07T10:43:06.132Z,69600.00
2019-04-07T10:44:06.307Z,66784.00
2019-04-07T10:45:07.251Z,62688.00
2019-04-07T10:46:06.746Z,64256.00
2019-04-07T10:47:07.173Z,65184.00
2019-04-07T10:48:07.055Z,31328.00
2019-04-07T10:49:07.198Z,68640.00
2019-04-07T10:50:08.816Z,70048.00
2019-04-07T10:51:07.910Z,70464.00
2019-04-07T10:52:07.740Z,66304.00
2019-04-07T10:53:08.229Z,15356.00
2019-04-07T10:54:08.175Z,69536.00
2019-04-07T10:55:08.594Z,71200.00
2019-04-07T10:56:08.884Z,21184.00
2019-04-07T10:57:08.657Z,73120.00
2019-04-07T10:58:09.130Z,75072.00
2019-04-07T10:59:09.325Z,71680.00
2019-04-07T11:00:09.198Z,25728.00
2019-04-07T11:01:09.943Z,49568.00
2019-04-07T11:02:10.260Z,73152.00
2019-04-07T11:03:09.759Z,33568.00
2019-04-07T11:04:10.637Z,73120.00
2019-04-07T11:05:10.128Z,72224.00
2019-04-07T11:06:10.295Z,71104.00
2019-04-07T11:07:10.592Z,68960.00
2019-04-07T11:08:10.664Z,70496.00
2019-04-07T11:09:11.204Z,72640.00
2019-04-07T11:10:11.504Z,73312.00
2019-04-07T11:11:11.187Z,74528.00
2019-04-07T11:12:11.402Z,71936.00
2019-04-07T11:13:12.714Z,72544.00
2019-04-07T11:14:11.749Z,70496.00
2019-04-07T11:15:12.517Z,74560.00
2019-04-07T11:16:12.759Z,78272.00
2019-04-07T11:17:12.530Z,79136.00
2019-04-07T11:18:12.475Z,76800.00
2019-04-07T11:19:12.966Z,78176.00
2019-04-07T11:20:13.334Z,78080.00
2019-04-07T11:21:13.099Z,76000.00
2019-04-07T11:22:13.206Z,73184.00
2019-04-07T11:23:13.389Z,74432.00
2019-04-07T11:24:13.684Z,77440.00
2019-04-07T11:25:14.869Z,77408.00
2019-04-07T11:26:13.936Z,77952.00
2019-04-07T11:27:14.768Z,73120.00
2019-04-07T11:28:14.299Z,76288.00
2019-04-07T11:29:14.515Z,76224.00
2019-04-07T11:30:14.658Z,75424.00
2019-04-07T11:31:15.659Z,60384.00
2019-04-07T11:32:15.029Z,27904.00
2019-04-07T11:33:16.227Z,46304.00
2019-04-07T11:34:15.981Z,72128.00
2019-04-07T11:35:15.570Z,77408.00
2019-04-07T11:36:18.010Z,79360.00
2019-04-07T11:37:15.939Z,39616.00
2019-04-07T11:38:16.812Z,30112.00
2019-04-07T11:39:16.302Z,24352.00
2019-04-07T11:40:17.112Z,66912.00
2019-04-07T11:41:17.015Z,24512.00
2019-04-07T11:42:17.079Z,86496.00
2019-04-07T11:43:17.028Z,80064.00
2019-04-07T11:44:19.911Z,62752.00
2019-04-07T11:45:17.395Z,29568.00
2019-04-07T11:46:17.604Z,58944.00
2019-04-07T11:47:18.350Z,77760.00
2019-04-07T11:48:18.037Z,78336.00
2019-04-07T11:49:18.267Z,83680.00
2019-04-07T11:50:18.921Z,83040.00
2019-04-07T11:51:18.550Z,86048.00
2019-04-07T11:52:18.654Z,81440.00
2019-04-07T11:53:18.863Z,41696.00
2019-04-07T11:54:19.787Z,81568.00
2019-04-07T11:55:19.216Z,31456.00
2019-04-07T11:56:19.577Z,30720.00
2019-04-07T11:57:20.356Z,60256.00
2019-04-07T11:58:25.984Z,34176.00
2019-04-07T11:59:20.441Z,45696.00
2019-04-07T12:00:20.603Z,23392.00
2019-04-07T12:01:20.319Z,88608.00
2019-04-07T12:02:21.590Z,87104.00
2019-04-07T12:03:24.690Z,51840.00
2019-04-07T12:04:21.563Z,87104.00
2019-04-07T12:05:21.220Z,86336.00
2019-04-07T12:06:24.158Z,85376.00
2019-04-07T12:07:22.035Z,42112.00
2019-04-07T12:08:21.686Z,85696.00
2019-04-07T12:09:22.276Z,86016.00
2019-04-07T12:10:22.487Z,85760.00
2019-04-07T12:11:22.236Z,81408.00
2019-04-07T12:12:22.903Z,86880.00
2019-04-07T12:13:22.514Z,29248.00
2019-04-07T12:14:22.617Z,32736.00
2019-04-07T12:15:25.784Z,89280.00
2019-04-07T12:16:24.715Z,88576.00
2019-04-07T12:17:23.426Z,87104.00
2019-04-07T12:18:23.476Z,87488.00
2019-04-07T12:19:24.888Z,85216.00
2019-04-07T12:20:25.681Z,87296.00
2019-04-07T12:21:25.503Z,91008.00
2019-04-07T12:22:24.033Z,91136.00
2019-04-07T12:23:25.675Z,87776.00
2019-04-07T12:24:27.486Z,34240.00
2019-04-07T12:25:24.565Z,83104.00
2019-04-07T12:26:24.807Z,31840.00
2019-04-07T12:27:24.915Z,31456.00
2019-04-07T12:28:25.735Z,28480.00
2019-04-07T12:29:25.503Z,29248.00
2019-04-07T12:30:26.382Z,85088.00
2019-04-07T12:31:26.036Z,53152.00
2019-04-07T12:32:26.043Z,88128.00
2019-04-07T12:33:26.575Z,28736.00
2019-04-07T12:34:26.489Z,27936.00
2019-04-07T12:35:26.359Z,29696.00
2019-04-07T12:36:29.460Z,27808.00
2019-04-07T12:37:27.355Z,28128.00
2019-04-07T12:38:27.438Z,85152.00
2019-04-07T12:39:27.095Z,72768.00
2019-04-07T12:40:27.961Z,27424.00
2019-04-07T12:41:30.707Z,81536.00
2019-04-07T12:42:27.767Z,89024.00
2019-04-07T12:43:27.835Z,79488.00
2019-04-07T12:44:28.899Z,74976.00
2019-04-07T12:45:28.513Z,74016.00
2019-04-07T12:46:28.971Z,71104.00
2019-04-07T12:47:28.539Z,84992.00
2019-04-07T12:48:29.978Z,80832.00
2019-04-07T12:49:29.795Z,25728.00
2019-04-07T12:50:29.083Z,22784.00
2019-04-07T12:51:29.266Z,21632.00
2019-04-07T12:52:31.163Z,22272.00
2019-04-07T12:53:32.162Z,21632.00
2019-04-07T12:54:29.818Z,55840.00
2019-04-07T12:55:30.433Z,31424.00
2019-04-07T12:56:33.327Z,20736.00
2019-04-07T12:57:30.792Z,22624.00
2019-04-07T12:58:31.243Z,35808.00
2019-04-07T12:59:30.961Z,85344.00
2019-04-07T13:00:30.881Z,26816.00
2019-04-07T13:01:31.690Z,51264.00
2019-04-07T13:02:31.799Z,87360.00
2019-04-07T13:03:31.445Z,86528.00
2019-04-07T13:04:31.868Z,92768.00
2019-04-07T13:05:34.611Z,60992.00
2019-04-07T13:06:32.073Z,90208.00
2019-04-07T13:07:32.526Z,84128.00
2019-04-07T13:08:32.360Z,79552.00
2019-04-07T13:09:33.348Z,87232.00
2019-04-07T13:10:34.309Z,84576.00
2019-04-07T13:11:37.323Z,78816.00
2019-04-07T13:12:33.250Z,25248.00
2019-04-07T13:13:34.141Z,21248.00
2019-04-07T13:14:37.814Z,20896.00
2019-04-07T13:15:33.840Z,19744.00
2019-04-07T13:16:33.887Z,23104.00
2019-04-07T13:17:36.758Z,69248.00
2019-04-07T13:18:37.795Z,74816.00
2019-04-07T13:19:35.237Z,23968.00
2019-04-07T13:20:34.682Z,79584.00
2019-04-07T13:21:34.759Z,81088.00
2019-04-07T13:22:35.481Z,81184.00
2019-04-07T13:23:36.932Z,55520.00
2019-04-07T13:24:38.853Z,63584.00
2019-04-07T13:25:36.342Z,28640.00
2019-04-07T13:26:35.701Z,75232.00
2019-04-07T13:27:38.854Z,80064.00
2019-04-07T13:28:35.985Z,85824.00
2019-04-07T13:29:37.728Z,87840.00
2019-04-07T13:30:36.569Z,85152.00
2019-04-07T13:31:36.515Z,67424.00
2019-04-07T13:32:41.644Z,24704.00
2019-04-07T13:33:37.180Z,22464.00
2019-04-07T13:34:37.039Z,79968.00
2019-04-07T13:35:37.159Z,76960.00
2019-04-07T13:36:37.734Z,71264.00
2019-04-07T13:37:38.365Z,72288.00
2019-04-07T13:38:38.374Z,76352.00
2019-04-07T13:39:41.508Z,21696.00
2019-04-07T13:40:38.092Z,19296.00
2019-04-07T13:41:44.493Z,17432.00
2019-04-07T13:42:38.993Z,16820.00
2019-04-07T13:43:38.619Z,19360.00
2019-04-07T13:44:39.622Z,37664.00
2019-04-07T13:45:39.036Z,73984.00
2019-04-07T13:46:39.051Z,75296.00
2019-04-07T13:47:42.574Z,77536.00
2019-04-07T13:48:39.967Z,80960.00
2019-04-07T13:49:39.638Z,79712.00
2019-04-07T13:50:40.608Z,76864.00
2019-04-07T13:51:40.843Z,77120.00
2019-04-07T13:52:41.528Z,78784.00
2019-04-07T13:53:41.009Z,75232.00
2019-04-07T13:54:40.481Z,74784.00
2019-04-07T13:55:42.643Z,75904.00
2019-04-07T13:56:40.833Z,78528.00
2019-04-07T13:57:40.960Z,77856.00
2019-04-07T13:58:41.132Z,74272.00
2019-04-07T13:59:44.067Z,66080.00
2019-04-07T14:00:42.934Z,77984.00
2019-04-07T14:01:41.664Z,75968.00
2019-04-07T14:02:42.179Z,69920.00
2019-04-07T14:03:42.016Z,73792.00
2019-04-07T14:04:42.420Z,76192.00
2019-04-07T14:05:43.059Z,72032.00
2019-04-07T14:06:44.919Z,67456.00
2019-04-07T14:07:42.819Z,37664.00
2019-04-07T14:08:43.654Z,65856.00
2019-04-07T14:09:43.120Z,64832.00
2019-04-07T14:10:43.943Z,66464.00
2019-04-07T14:11:57.331Z,66720.00
2019-04-07T14:12:44.363Z,66208.00
2019-04-07T14:13:44.651Z,69632.00
2019-04-07T14:14:44.697Z,51936.00
2019-04-07T14:15:44.289Z,71232.00
2019-04-07T14:16:44.400Z,70368.00
2019-04-07T14:17:45.045Z,70976.00
2019-04-07T14:18:46.818Z,74304.00
2019-04-07T14:19:44.933Z,73888.00
2019-04-07T14:20:45.110Z,67808.00
2019-04-07T14:21:45.263Z,70080.00
2019-04-07T14:22:45.490Z,65600.00
2019-04-07T14:23:45.634Z,72480.00
2019-04-07T14:24:46.101Z,71072.00
2019-04-07T14:25:47.491Z,24192.00
2019-04-07T14:26:46.737Z,72256.00
2019-04-07T14:27:46.314Z,72448.00
2019-04-07T14:28:46.487Z,71520.00
2019-04-07T14:29:47.120Z,74528.00
2019-04-07T14:30:46.914Z,75712.00
2019-04-07T14:31:47.021Z,74272.00
2019-04-07T14:32:49.407Z,71296.00
2019-04-07T14:33:48.068Z,65920.00
2019-04-07T14:34:47.679Z,65824.00
2019-04-07T14:35:47.833Z,62656.00
2019-04-07T14:36:48.047Z,57184.00
2019-04-07T14:37:48.408Z,28064.00
2019-04-07T14:38:48.281Z,26144.00
2019-04-07T14:39:48.825Z,67712.00
2019-04-07T14:40:48.897Z,67872.00
2019-04-07T14:41:48.808Z,63200.00
2019-04-07T14:42:49.554Z,50400.00
2019-04-07T14:43:49.708Z,21344.00
2019-04-07T14:44:50.043Z,19200.00
2019-04-07T14:45:50.398Z,18048.00
2019-04-07T14:46:50.082Z,42784.00
2019-04-07T14:47:49.941Z,23936.00
2019-04-07T14:48:50.255Z,17696.00
2019-04-07T14:49:51.889Z,19072.00
2019-04-07T14:50:50.464Z,44608.00
2019-04-07T14:51:51.284Z,62688.00
2019-04-07T14:52:50.828Z,16736.00
2019-04-07T14:53:51.021Z,15832.00
2019-04-07T14:54:57.124Z,17196.00
2019-04-07T14:55:52.104Z,61280.00
2019-04-07T14:56:52.023Z,21152.00
2019-04-07T14:57:52.453Z,45056.00
2019-04-07T14:58:53.752Z,18880.00
2019-04-07T14:59:54.154Z,19744.00
2019-04-07T15:00:52.287Z,20416.00
2019-04-07T15:01:52.471Z,20928.00
2019-04-07T15:02:53.022Z,26912.00
2019-04-07T15:03:52.830Z,21856.00
2019-04-07T15:04:53.140Z,61312.00
2019-04-07T15:05:56.397Z,55072.00
2019-04-07T15:06:53.758Z,55232.00
2019-04-07T15:07:55.886Z,57408.00
2019-04-07T15:08:53.725Z,58080.00
2019-04-07T15:09:54.595Z,54432.00
2019-04-07T15:10:54.087Z,47936.00
2019-04-07T15:11:54.266Z,20768.00
2019-04-07T15:12:54.447Z,22400.00
2019-04-07T15:13:57.263Z,34496.00
2019-04-07T15:14:55.543Z,37408.00
2019-04-07T15:15:54.986Z,49824.00
2019-04-07T15:16:55.747Z,42144.00
2019-04-07T15:17:55.349Z,43232.00
2019-04-07T15:18:56.501Z,39872.00
2019-04-07T15:19:56.051Z,18976.00
2019-04-07T15:20:56.146Z,47584.00
2019-04-07T15:21:56.068Z,50624.00
2019-04-07T15:22:58.375Z,53440.00
2019-04-07T15:23:57.253Z,52032.00
2019-04-07T15:24:57.022Z,50752.00
2019-04-07T15:25:56.856Z,48640.00
2019-04-07T15:26:57.739Z,47552.00
2019-04-07T15:27:59.377Z,49216.00
2019-04-07T15:28:59.010Z,49184.00
2019-04-07T15:29:57.795Z,46112.00
2019-04-07T15:30:57.680Z,44992.00
2019-04-07T15:31:58.567Z,44352.00
2019-04-07T15:33:01.015Z,44800.00
2019-04-07T15:34:00.516Z,42592.00
2019-04-07T15:34:58.941Z,36256.00
2019-04-07T15:35:58.934Z,18432.00
2019-04-07T15:36:59.087Z,15372.00
2019-04-07T15:37:59.192Z,26016.00
2019-04-07T15:38:59.555Z,46848.00
2019-04-07T15:40:02.683Z,45568.00
2019-04-07T15:41:00.888Z,44064.00
2019-04-07T15:41:59.673Z,44672.00
2019-04-07T15:43:03.863Z,44224.00
2019-04-07T15:44:00.462Z,42624.00
2019-04-07T15:45:01.104Z,40864.00
2019-04-07T15:46:01.204Z,23456.00
2019-04-07T15:47:00.575Z,40480.00
2019-04-07T15:48:00.948Z,36800.00
2019-04-07T15:49:00.930Z,34976.00
2019-04-07T15:50:01.112Z,34976.00
2019-04-07T15:51:04.657Z,34880.00
2019-04-07T15:52:01.735Z,30080.00
2019-04-07T15:53:01.663Z,30368.00
2019-04-07T15:54:02.679Z,32992.00
2019-04-07T15:55:02.085Z,34240.00
2019-04-07T15:56:06.327Z,32224.00
2019-04-07T15:57:02.560Z,36608.00
2019-04-07T15:58:03.080Z,36544.00